createdAt,value
2017-12-06T00:01:21.491Z,11.88
2017-12-06T00:03:50.684Z,11.00
2017-12-06T00:06:19.931Z,11.70
2017-12-06T00:08:48.542Z,12.20
2017-12-06T00:11:16.978Z,12.50
2017-12-06T00:13:50.151Z,10.40
2017-12-06T00:16:19.386Z,12.50
2017-12-06T00:18:47.803Z,11.50
2017-12-06T00:21:16.285Z,12.00
2017-12-06T00:23:44.527Z,10.50
2017-12-06T00:26:13.004Z,11.20
2017-12-06T00:28:41.407Z,12.07
2017-12-06T00:31:09.872Z,10.90
2017-12-06T00:33:38.319Z,11.87
2017-12-06T00:36:07.043Z,11.48
2017-12-06T00:38:35.467Z,11.67
2017-12-06T00:41:03.935Z,10.80
2017-12-06T00:43:32.363Z,11.57
2017-12-06T00:46:00.818Z,11.13
2017-12-06T00:48:29.266Z,10.87
2017-12-06T00:50:57.718Z,10.80
2017-12-06T00:53:26.161Z,10.50
2017-12-06T00:55:54.587Z,11.63
2017-12-06T00:58:23.028Z,10.47
2017-12-06T01:00:51.462Z,11.90
2017-12-06T01:03:20.767Z,11.20
2017-12-06T01:05:49.232Z,10.33
2017-12-06T01:08:17.669Z,11.37
2017-12-06T01:10:46.082Z,10.50
2017-12-06T01:13:14.626Z,11.10
2017-12-06T01:15:43.107Z,10.23
2017-12-06T01:18:11.571Z,10.10
2017-12-06T01:20:39.799Z,11.27
2017-12-06T01:23:08.999Z,9.63
2017-12-06T01:25:38.197Z,9.93
2017-12-06T01:28:07.419Z,10.83
2017-12-06T01:30:35.868Z,10.37
2017-12-06T01:33:04.327Z,10.40
2017-12-06T01:35:32.757Z,9.23
2017-12-06T01:38:01.222Z,9.10
2017-12-06T01:40:30.467Z,9.97
2017-12-06T01:42:58.906Z,10.87
2017-12-06T01:45:28.111Z,9.87
2017-12-06T01:47:57.303Z,9.97
2017-12-06T01:50:26.322Z,9.87
2017-12-06T01:52:54.763Z,9.77
2017-12-06T01:55:22.862Z,10.43
2017-12-06T01:57:50.642Z,10.57
2017-12-06T02:00:19.121Z,10.30
2017-12-06T02:02:47.622Z,11.20
2017-12-06T02:05:15.870Z,9.60
2017-12-06T02:07:45.146Z,9.87
2017-12-06T02:10:13.588Z,10.50
2017-12-06T02:12:41.693Z,10.10
2017-12-06T02:15:10.135Z,10.30
2017-12-06T02:17:38.235Z,10.60
2017-12-06T02:20:06.011Z,9.77
2017-12-06T02:22:34.099Z,12.20
2017-12-06T02:25:02.640Z,11.93
2017-12-06T02:27:30.408Z,11.17
2017-12-06T02:29:58.351Z,11.90
2017-12-06T02:32:26.444Z,13.00
2017-12-06T02:34:54.877Z,11.03
2017-12-06T02:37:23.323Z,10.73
2017-12-06T02:40:02.966Z,11.00
2017-12-06T02:42:42.624Z,11.20
2017-12-06T02:45:19.095Z,10.50
2017-12-06T02:47:47.540Z,11.17
2017-12-06T02:50:15.974Z,10.23
2017-12-06T02:52:44.462Z,9.60
2017-12-06T02:55:12.891Z,11.10
2017-12-06T02:57:40.668Z,10.37
2017-12-06T03:00:09.147Z,9.70
2017-12-06T03:02:37.594Z,10.20
2017-12-06T03:05:06.015Z,10.23
2017-12-06T03:07:34.486Z,10.10
2017-12-06T03:10:02.906Z,8.97
2017-12-06T03:12:31.347Z,9.80
2017-12-06T03:14:59.858Z,9.53
2017-12-06T03:17:28.318Z,7.40
2017-12-06T03:19:56.746Z,6.90
2017-12-06T03:22:25.435Z,6.35
2017-12-06T03:24:54.668Z,6.53
2017-12-06T03:27:23.187Z,7.53
2017-12-06T03:29:51.818Z,7.60
2017-12-06T03:32:21.102Z,6.20
2017-12-06T03:34:49.551Z,7.23
2017-12-06T03:37:18.122Z,7.20
2017-12-06T03:39:46.543Z,7.30
2017-12-06T03:42:14.983Z,6.67
2017-12-06T03:44:43.402Z,7.00
2017-12-06T03:47:11.848Z,6.30
2017-12-06T03:49:40.342Z,6.60
2017-12-06T03:52:08.771Z,7.80
2017-12-06T03:54:37.958Z,7.10
2017-12-06T03:57:06.438Z,7.30
2017-12-06T03:59:34.946Z,7.97
2017-12-06T04:02:03.411Z,7.87
2017-12-06T04:04:32.675Z,5.57
2017-12-06T04:07:01.123Z,6.93
2017-12-06T04:09:29.551Z,7.20
2017-12-06T04:11:57.970Z,6.07
2017-12-06T04:14:27.171Z,6.47
2017-12-06T04:16:56.349Z,5.97
2017-12-06T04:19:24.618Z,5.37
2017-12-06T04:21:53.319Z,6.45
2017-12-06T04:24:22.524Z,6.30
2017-12-06T04:26:51.239Z,5.85
2017-12-06T04:29:20.843Z,6.35
2017-12-06T04:31:49.306Z,5.20
2017-12-06T04:34:18.014Z,6.35
2017-12-06T04:36:46.511Z,5.40
2017-12-06T04:39:14.438Z,5.80
2017-12-06T04:41:42.985Z,5.17
2017-12-06T04:44:11.696Z,6.30
2017-12-06T04:46:40.068Z,5.25
2017-12-06T04:49:08.487Z,6.30
2017-12-06T04:51:37.680Z,6.07
2017-12-06T04:54:06.867Z,6.30
2017-12-06T04:56:36.104Z,6.00
2017-12-06T04:59:04.700Z,6.30
2017-12-06T05:01:33.288Z,6.27
2017-12-06T05:04:01.702Z,7.07
2017-12-06T05:06:30.154Z,7.37
2017-12-06T05:08:58.597Z,6.90
2017-12-06T05:11:27.777Z,6.00
2017-12-06T05:13:57.369Z,6.30
2017-12-06T05:16:25.856Z,7.10
2017-12-06T05:18:54.282Z,7.00
2017-12-06T05:21:22.739Z,7.50
2017-12-06T05:23:51.940Z,7.40
2017-12-06T05:26:21.162Z,7.60
2017-12-06T05:28:49.591Z,6.67
2017-12-06T05:31:18.007Z,7.13
2017-12-06T05:33:47.198Z,6.97
2017-12-06T05:36:16.394Z,6.90
2017-12-06T05:38:45.094Z,6.90
2017-12-06T05:41:13.927Z,7.35
2017-12-06T05:43:42.374Z,7.27
2017-12-06T05:46:11.115Z,6.28
2017-12-06T05:48:39.779Z,6.77
2017-12-06T05:51:08.187Z,7.20
2017-12-06T05:53:36.846Z,6.60
2017-12-06T05:56:05.448Z,5.63
2017-12-06T05:58:33.875Z,6.33
2017-12-06T06:01:03.127Z,6.63
2017-12-06T06:03:31.564Z,6.50
2017-12-06T06:06:00.461Z,6.53
2017-12-06T06:08:29.055Z,6.50
2017-12-06T06:10:57.357Z,7.00
2017-12-06T06:13:25.862Z,9.10
2017-12-06T06:15:54.306Z,10.70
2017-12-06T06:18:22.722Z,7.50
2017-12-06T06:20:51.178Z,7.33
2017-12-06T06:23:19.615Z,7.77
2017-12-06T06:25:49.026Z,8.23
2017-12-06T06:28:18.230Z,8.40
2017-12-06T06:30:47.747Z,9.90
2017-12-06T06:33:16.195Z,8.37
2017-12-06T06:35:44.658Z,9.07
2017-12-06T06:38:13.083Z,8.00
2017-12-06T06:40:41.399Z,8.60
2017-12-06T06:43:09.524Z,8.70
2017-12-06T06:45:38.724Z,8.30
2017-12-06T06:48:07.926Z,9.27
2017-12-06T06:50:37.170Z,9.63
2017-12-06T06:53:05.851Z,8.67
2017-12-06T06:55:34.283Z,9.20
2017-12-06T06:58:03.496Z,8.37
2017-12-06T07:00:32.363Z,10.70
2017-12-06T07:03:01.083Z,10.25
2017-12-06T07:05:29.695Z,8.50
2017-12-06T07:07:58.155Z,9.30
2017-12-06T07:10:26.583Z,8.90
2017-12-06T07:12:54.695Z,9.43
2017-12-06T07:15:23.886Z,9.43
2017-12-06T07:17:53.094Z,8.70
2017-12-06T07:20:21.813Z,9.57
2017-12-06T07:22:50.264Z,9.87
2017-12-06T07:25:19.134Z,10.00
2017-12-06T07:27:47.563Z,10.57
2017-12-06T07:30:15.841Z,10.90
2017-12-06T07:32:44.347Z,10.05
2017-12-06T07:35:12.262Z,10.50
2017-12-06T07:37:41.262Z,9.73
2017-12-06T07:40:10.474Z,9.97
2017-12-06T07:42:38.729Z,9.90
2017-12-06T07:45:07.971Z,10.17
2017-12-06T07:47:36.398Z,9.77
2017-12-06T07:50:05.023Z,10.40
2017-12-06T07:52:33.730Z,11.57
2017-12-06T07:55:02.178Z,11.20
2017-12-06T07:57:31.446Z,10.33
2017-12-06T08:00:00.038Z,10.03
2017-12-06T08:02:28.555Z,10.20
2017-12-06T08:04:57.898Z,10.30
2017-12-06T08:07:26.351Z,9.13
2017-12-06T08:09:54.775Z,9.70
2017-12-06T08:12:23.239Z,10.00
2017-12-06T08:14:51.654Z,9.40
2017-12-06T08:17:20.091Z,8.80
2017-12-06T08:19:48.523Z,10.90
2017-12-06T08:22:16.983Z,9.23
2017-12-06T08:24:45.472Z,9.50
2017-12-06T08:27:13.909Z,10.57
2017-12-06T08:29:42.358Z,10.07
2017-12-06T08:32:11.574Z,10.00
2017-12-06T08:34:40.031Z,11.30
2017-12-06T08:37:08.466Z,10.97
2017-12-06T08:39:36.895Z,9.93
2017-12-06T08:42:05.327Z,9.40
2017-12-06T08:44:33.433Z,10.03
2017-12-06T08:47:01.875Z,10.20
2017-12-06T08:49:30.312Z,9.20
2017-12-06T08:51:58.914Z,10.13
2017-12-06T08:54:27.793Z,9.13
2017-12-06T08:56:56.243Z,9.53
2017-12-06T08:59:24.674Z,9.73
2017-12-06T09:01:53.106Z,9.80
2017-12-06T09:04:21.539Z,10.10
2017-12-06T09:06:50.796Z,10.03
2017-12-06T09:09:19.262Z,10.37
2017-12-06T09:11:47.046Z,9.07
2017-12-06T09:14:15.470Z,9.97
2017-12-06T09:16:43.921Z,9.90
2017-12-06T09:19:13.120Z,9.87
2017-12-06T09:21:41.558Z,9.50
2017-12-06T09:24:09.982Z,9.67
2017-12-06T09:26:38.534Z,10.03
2017-12-06T09:29:06.980Z,10.00
2017-12-06T09:31:35.447Z,10.17
2017-12-06T09:34:04.643Z,10.70
2017-12-06T09:36:33.202Z,10.80
2017-12-06T09:39:01.668Z,10.60
2017-12-06T09:41:30.099Z,9.13
2017-12-06T09:43:59.308Z,9.83
2017-12-06T09:46:28.527Z,10.20
2017-12-06T09:48:57.151Z,9.87
2017-12-06T09:51:25.807Z,10.07
2017-12-06T09:53:54.246Z,9.90
2017-12-06T09:56:23.459Z,10.60
2017-12-06T09:58:52.675Z,10.60
2017-12-06T10:01:21.110Z,10.33
2017-12-06T10:03:49.558Z,10.00
2017-12-06T10:06:17.998Z,10.77
2017-12-06T10:08:47.255Z,10.37
2017-12-06T10:11:15.814Z,11.03
2017-12-06T10:13:44.259Z,10.03
2017-12-06T10:16:13.478Z,10.70
2017-12-06T10:18:41.589Z,10.33
2017-12-06T10:21:09.712Z,10.27
2017-12-06T10:23:38.911Z,11.70
2017-12-06T10:26:08.251Z,10.70
2017-12-06T10:28:36.334Z,10.10
2017-12-06T10:31:04.442Z,10.50
2017-12-06T10:33:32.898Z,10.20
2017-12-06T10:36:01.018Z,10.80
2017-12-06T10:38:30.244Z,10.10
2017-12-06T10:40:58.682Z,10.63
2017-12-06T10:43:27.112Z,13.10
2017-12-06T10:45:54.887Z,9.77
2017-12-06T10:48:23.169Z,9.87
2017-12-06T10:50:51.729Z,10.10
2017-12-06T10:53:20.190Z,10.87
2017-12-06T10:55:49.378Z,10.63
2017-12-06T10:58:18.636Z,9.77
2017-12-06T11:00:47.996Z,10.10
2017-12-06T11:03:17.232Z,10.40
2017-12-06T11:05:45.711Z,10.60
2017-12-06T11:08:14.240Z,10.50
2017-12-06T11:10:42.682Z,10.70
2017-12-06T11:13:11.115Z,11.83
2017-12-06T11:15:40.330Z,11.10
2017-12-06T11:18:08.754Z,11.40
2017-12-06T11:20:37.196Z,11.17
2017-12-06T11:23:05.724Z,11.13
2017-12-06T11:25:34.153Z,10.27
2017-12-06T11:28:03.386Z,10.37
2017-12-06T11:30:31.867Z,11.13
2017-12-06T11:33:00.342Z,10.37
2017-12-06T11:35:29.767Z,10.17
2017-12-06T11:37:58.215Z,12.67
2017-12-06T11:40:26.637Z,10.50
2017-12-06T11:42:55.090Z,10.20
2017-12-06T11:45:23.522Z,11.43
2017-12-06T11:47:52.006Z,9.53
2017-12-06T11:50:20.447Z,10.73
2017-12-06T11:52:48.904Z,9.90
2017-12-06T11:55:17.483Z,10.40
2017-12-06T11:57:46.330Z,10.27
2017-12-06T12:00:14.103Z,10.40
2017-12-06T12:02:42.537Z,9.53
2017-12-06T12:05:10.986Z,10.30
2017-12-06T12:07:40.184Z,10.43
2017-12-06T12:10:09.384Z,11.10
2017-12-06T12:12:38.603Z,10.70
2017-12-06T12:15:07.054Z,10.90
2017-12-06T12:17:35.623Z,11.40
2017-12-06T12:20:04.072Z,10.47
2017-12-06T12:22:32.507Z,10.40
2017-12-06T12:25:00.942Z,12.27
2017-12-06T12:27:29.387Z,10.97
2017-12-06T12:29:58.607Z,11.40
2017-12-06T12:32:27.046Z,9.63
2017-12-06T12:34:55.507Z,10.37
2017-12-06T12:37:23.294Z,9.57
2017-12-06T12:39:50.862Z,10.97
2017-12-06T12:42:19.416Z,9.90
2017-12-06T12:44:47.200Z,9.43
2017-12-06T12:47:14.978Z,10.40
2017-12-06T12:49:43.529Z,11.03
2017-12-06T12:52:11.630Z,9.43
2017-12-06T12:54:39.403Z,8.90
2017-12-06T12:57:07.930Z,11.00
2017-12-06T12:59:35.755Z,9.97
2017-12-06T13:02:04.387Z,10.00
2017-12-06T13:04:32.349Z,9.87
2017-12-06T13:07:00.217Z,10.33
2017-12-06T13:09:27.999Z,9.90
2017-12-06T13:11:55.771Z,10.00
2017-12-06T13:14:23.557Z,10.23
2017-12-06T13:16:51.326Z,10.20
2017-12-06T13:19:19.115Z,10.50
2017-12-06T13:21:47.664Z,9.90
2017-12-06T13:24:15.423Z,9.50
2017-12-06T13:26:43.019Z,10.27
2017-12-06T13:29:11.562Z,10.30
2017-12-06T13:31:39.346Z,12.33
2017-12-06T13:34:07.111Z,11.30
2017-12-06T13:36:34.890Z,11.30
2017-12-06T13:39:02.854Z,10.10
2017-12-06T13:41:32.168Z,11.00
2017-12-06T13:43:59.940Z,10.20
2017-12-06T13:46:28.570Z,10.87
2017-12-06T13:48:57.875Z,11.03
2017-12-06T13:51:25.666Z,10.70
2017-12-06T13:53:53.444Z,11.20
2017-12-06T13:56:21.349Z,10.70
2017-12-06T13:58:49.958Z,11.20
2017-12-06T14:01:18.235Z,12.70
2017-12-06T14:03:46.668Z,11.60
2017-12-06T14:06:14.487Z,10.60
2017-12-06T14:08:42.585Z,12.00
2017-12-06T14:11:10.679Z,10.93
2017-12-06T14:13:38.470Z,10.37
2017-12-06T14:16:07.390Z,10.47
2017-12-06T14:18:35.195Z,10.90
2017-12-06T14:21:03.026Z,9.87
2017-12-06T14:23:31.591Z,11.80
2017-12-06T14:25:59.471Z,10.03
2017-12-06T14:28:27.594Z,11.30
2017-12-06T14:30:55.356Z,13.10
2017-12-06T14:33:23.152Z,12.50
2017-12-06T14:35:51.771Z,12.77
2017-12-06T14:38:19.563Z,11.10
2017-12-06T14:40:47.523Z,10.27
2017-12-06T14:43:15.294Z,11.10
2017-12-06T14:45:43.160Z,10.50
2017-12-06T14:48:10.928Z,10.23
2017-12-06T14:50:39.732Z,9.40
2017-12-06T14:53:07.856Z,11.03
2017-12-06T14:55:35.950Z,9.97
2017-12-06T14:58:03.543Z,10.33
2017-12-06T15:00:31.413Z,9.93
2017-12-06T15:02:59.194Z,9.23
2017-12-06T15:05:27.753Z,9.30
2017-12-06T15:07:55.559Z,10.23
2017-12-06T15:10:24.142Z,9.50
2017-12-06T15:12:52.687Z,9.97
2017-12-06T15:15:20.459Z,10.40
2017-12-06T15:17:48.297Z,9.97
2017-12-06T15:20:16.065Z,11.10
2017-12-06T15:22:43.849Z,9.80
2017-12-06T15:25:11.672Z,9.47
2017-12-06T15:27:39.572Z,11.57
2017-12-06T15:30:07.335Z,11.10
2017-12-06T15:32:35.122Z,9.90
2017-12-06T15:35:02.903Z,10.20
2017-12-06T15:37:30.783Z,10.63
2017-12-06T15:39:59.436Z,9.90
2017-12-06T15:42:27.206Z,10.60
2017-12-06T15:44:55.352Z,11.27
2017-12-06T15:47:23.527Z,14.07
2017-12-06T15:49:51.315Z,10.13
2017-12-06T15:52:19.418Z,9.77
2017-12-06T15:54:47.895Z,10.70
2017-12-06T15:57:16.339Z,11.03
2017-12-06T15:59:44.199Z,10.53
2017-12-06T16:02:12.319Z,11.13
2017-12-06T16:04:40.425Z,10.60
2017-12-06T16:07:08.536Z,9.73
2017-12-06T16:09:36.982Z,11.20
2017-12-06T16:12:05.484Z,10.43
2017-12-06T16:14:33.392Z,10.50
2017-12-06T16:17:02.047Z,10.37
2017-12-06T16:19:30.335Z,10.40
2017-12-06T16:21:58.475Z,11.20
2017-12-06T16:24:26.266Z,10.37
2017-12-06T16:26:54.060Z,10.30
2017-12-06T16:29:22.291Z,10.40
2017-12-06T16:31:50.526Z,10.27
2017-12-06T16:34:18.658Z,10.03
2017-12-06T16:36:58.223Z,9.57
2017-12-06T16:39:26.355Z,9.40
2017-12-06T16:41:54.800Z,9.40
2017-12-06T16:44:22.952Z,9.93
2017-12-06T16:46:51.088Z,10.30
2017-12-06T16:49:19.192Z,11.17
2017-12-06T16:51:47.371Z,10.57
2017-12-06T16:54:15.146Z,10.00
2017-12-06T16:56:43.272Z,11.53
2017-12-06T16:59:11.048Z,11.10
2017-12-06T17:01:39.191Z,11.17
2017-12-06T17:04:07.760Z,11.00
2017-12-06T17:06:36.233Z,10.70
2017-12-06T17:09:03.995Z,9.87
2017-12-06T17:11:32.139Z,8.67
2017-12-06T17:14:00.603Z,8.70
2017-12-06T17:16:28.746Z,9.50
2017-12-06T17:18:57.272Z,8.63
2017-12-06T17:21:25.828Z,9.20
2017-12-06T17:23:54.764Z,9.47
2017-12-06T17:26:22.981Z,9.97
2017-12-06T17:29:02.503Z,10.20
2017-12-06T17:31:42.202Z,10.50
2017-12-06T17:34:10.754Z,10.70
2017-12-06T17:36:38.562Z,10.83
2017-12-06T17:39:06.354Z,10.70
2017-12-06T17:41:34.948Z,9.67
2017-12-06T17:44:02.819Z,8.80
2017-12-06T17:46:30.614Z,10.23
2017-12-06T17:48:59.198Z,9.07
2017-12-06T17:51:28.071Z,9.83
2017-12-06T17:53:56.525Z,9.40
2017-12-06T17:56:24.635Z,9.77
2017-12-06T17:58:52.449Z,9.63
2017-12-06T18:01:20.226Z,8.03
2017-12-06T18:03:48.019Z,9.80
2017-12-06T18:06:15.795Z,9.03
2017-12-06T18:08:43.937Z,9.10
2017-12-06T18:11:12.408Z,8.30
2017-12-06T18:13:40.195Z,9.00
2017-12-06T18:16:08.290Z,8.77
2017-12-06T18:18:36.071Z,7.60
2017-12-06T18:21:04.643Z,7.57
2017-12-06T18:23:32.491Z,8.20
2017-12-06T18:26:00.343Z,8.20
2017-12-06T18:28:28.452Z,8.33
2017-12-06T18:30:56.246Z,7.90
2017-12-06T18:33:25.135Z,8.10
2017-12-06T18:35:53.708Z,9.77
2017-12-06T18:38:22.600Z,8.00
2017-12-06T18:40:51.487Z,8.07
2017-12-06T18:43:19.590Z,8.70
2017-12-06T18:45:47.858Z,10.30
2017-12-06T18:48:17.071Z,9.30
2017-12-06T18:50:45.927Z,9.30
2017-12-06T18:53:15.195Z,10.30
2017-12-06T18:55:44.176Z,10.40
2017-12-06T18:58:12.667Z,9.83
2017-12-06T19:00:40.775Z,9.50
2017-12-06T19:03:09.220Z,9.20
2017-12-06T19:05:37.643Z,8.83
2017-12-06T19:08:06.424Z,7.82
2017-12-06T19:10:35.663Z,12.10
2017-12-06T19:13:04.068Z,8.73
2017-12-06T19:15:32.539Z,9.37
2017-12-06T19:18:01.018Z,10.00
2017-12-06T19:20:29.840Z,9.10
2017-12-06T19:22:58.620Z,9.98
2017-12-06T19:25:27.373Z,9.57
2017-12-06T19:27:55.843Z,10.60
2017-12-06T19:30:24.701Z,10.52
2017-12-06T19:32:53.162Z,9.60
2017-12-06T19:35:21.636Z,10.63
2017-12-06T19:37:50.082Z,11.00
2017-12-06T19:40:18.811Z,9.82
2017-12-06T19:42:48.501Z,9.52
2017-12-06T19:45:16.966Z,9.60
2017-12-06T19:47:45.811Z,10.20
2017-12-06T19:50:14.547Z,10.48
2017-12-06T19:52:43.004Z,9.47
2017-12-06T19:55:11.719Z,9.35
2017-12-06T19:57:40.470Z,9.20
2017-12-06T20:00:09.302Z,9.17
2017-12-06T20:02:38.039Z,9.27
2017-12-06T20:05:06.763Z,10.65
2017-12-06T20:07:35.498Z,9.73
2017-12-06T20:10:03.940Z,8.73
2017-12-06T20:12:32.667Z,8.27
2017-12-06T20:15:02.131Z,8.00
2017-12-06T20:17:30.880Z,8.75
2017-12-06T20:19:59.371Z,9.30
2017-12-06T20:22:28.080Z,8.88
2017-12-06T20:24:56.813Z,8.70
2017-12-06T20:27:25.256Z,8.10
2017-12-06T20:29:54.497Z,8.63
2017-12-06T20:32:22.945Z,9.20
2017-12-06T20:34:51.687Z,9.52
2017-12-06T20:37:20.116Z,8.30
2017-12-06T20:39:48.912Z,9.27
2017-12-06T20:42:17.646Z,9.30
2017-12-06T20:44:46.372Z,8.93
2017-12-06T20:47:15.588Z,11.00
2017-12-06T20:49:44.476Z,9.20
2017-12-06T20:52:13.251Z,9.23
2017-12-06T20:54:42.009Z,9.50
2017-12-06T20:57:10.757Z,11.38
2017-12-06T20:59:40.273Z,10.43
2017-12-06T21:02:09.763Z,10.35
2017-12-06T21:04:38.518Z,11.30
2017-12-06T21:07:07.223Z,10.13
2017-12-06T21:09:35.983Z,11.12
2017-12-06T21:12:04.812Z,10.82
2017-12-06T21:14:33.552Z,10.23
2017-12-06T21:17:02.295Z,11.18
2017-12-06T21:19:31.024Z,12.43
2017-12-06T21:21:59.422Z,11.50
2017-12-06T21:24:28.164Z,11.75
2017-12-06T21:26:57.675Z,11.30
2017-12-06T21:29:27.204Z,11.45
2017-12-06T21:31:55.988Z,11.63
2017-12-06T21:34:24.710Z,11.88
2017-12-06T21:36:53.497Z,13.20
2017-12-06T21:39:22.241Z,11.68
2017-12-06T21:41:51.755Z,11.65
2017-12-06T21:44:20.521Z,12.40
2017-12-06T21:46:50.033Z,13.30
2017-12-06T21:49:19.530Z,12.63
2017-12-06T21:51:49.057Z,14.55
2017-12-06T21:54:18.599Z,12.85
2017-12-06T21:56:47.424Z,13.77
2017-12-06T21:59:16.298Z,13.98
2017-12-06T22:01:45.047Z,12.95
2017-12-06T22:04:13.766Z,13.52
2017-12-06T22:06:42.733Z,14.50
2017-12-06T22:09:11.485Z,13.55
2017-12-06T22:11:40.279Z,15.38
2017-12-06T22:14:09.055Z,14.50
2017-12-06T22:16:37.897Z,14.93
2017-12-06T22:19:06.626Z,15.40
2017-12-06T22:21:35.344Z,14.25
2017-12-06T22:24:04.862Z,15.00
2017-12-06T22:26:34.422Z,16.45
2017-12-06T22:29:03.159Z,16.08
2017-12-06T22:31:32.666Z,16.70
2017-12-06T22:34:02.182Z,13.85
2017-12-06T22:36:30.960Z,17.25
2017-12-06T22:39:00.541Z,14.80
2017-12-06T22:41:29.282Z,15.68
2017-12-06T22:43:58.015Z,17.27
2017-12-06T22:46:26.727Z,17.15
2017-12-06T22:48:56.216Z,14.63
2017-12-06T22:51:24.631Z,16.08
2017-12-06T22:53:53.358Z,15.82
2017-12-06T22:56:22.081Z,16.85
2017-12-06T22:58:51.556Z,16.62
2017-12-06T23:01:20.283Z,17.87
2017-12-06T23:03:49.775Z,18.02
2017-12-06T23:06:18.499Z,17.12
2017-12-06T23:08:47.231Z,16.83
2017-12-06T23:11:15.943Z,18.08
2017-12-06T23:13:44.875Z,18.85
2017-12-06T23:16:13.599Z,17.87
2017-12-06T23:18:42.343Z,18.80
2017-12-06T23:21:10.783Z,18.87
2017-12-06T23:23:39.528Z,19.35
2017-12-06T23:26:08.235Z,18.85
2017-12-06T23:28:36.955Z,19.73
2017-12-06T23:31:05.343Z,20.17
2017-12-06T23:33:34.903Z,21.30
2017-12-06T23:36:03.654Z,20.33
2017-12-06T23:38:33.138Z,19.42
2017-12-06T23:41:01.522Z,19.58
2017-12-06T23:43:30.657Z,20.20
2017-12-06T23:45:59.546Z,19.55
2017-12-06T23:48:28.258Z,19.87
2017-12-06T23:50:57.010Z,20.05
2017-12-06T23:53:26.479Z,19.40
2017-12-06T23:55:55.205Z,19.48
2017-12-06T23:58:24.756Z,18.80
